Time;durP1;ratioP1;P1;durP2;ratioP2;P2;SDS_P1;SDS_P2;PMS_P1;PMS_P2;Temp;Humidity;BMP_temperature;BMP_pressure;BME280_temperature;BME280_humidity;BME280_pressure;Samples;Min_cycle;Max_cycle;Signal;HPM_P1;HPM_P2
2023/05/11 00:00:08;;;;;;;1.30;1.20;;;;;;;14.01;74.30;99278.34;337382;28;17901;-76
2023/05/11 00:00:20;;;;;;;1.40;1.30;;;;;;;14.04;74.12;99272.94;335827;28;16392;-76
2023/05/11 00:00:32;;;;;;;1.65;1.52;;;;;;;14.07;74.09;99275.41;338624;28;4613;-76
2023/05/11 00:00:44;;;;;;;2.30;2.10;;;;;;;14.08;73.92;99274.47;339031;28;4684;-76
2023/05/11 00:01:06;;;;;;;2.67;2.47;;;;;;;14.10;73.99;99277.84;335768;28;18357;-76
2023/05/11 00:01:19;;;;;;;2.22;2.03;;;;;;;14.11;73.94;99279.53;335273;28;17499;-76
2023/05/11 00:01:32;;;;;;;1.90;1.73;;;;;;;14.10;73.71;99277.84;336467;28;17953;-76
2023/05/11 00:01:44;;;;;;;1.75;1.65;;;;;;;14.08;74.19;99274.47;338932;28;4512;-76
2023/05/11 00:01:58;;;;;;;2.40;1.80;;;;;;;14.11;74.29;99269.09;335942;28;18506;-76
2023/05/11 00:02:12;;;;;;;2.58;1.90;;;;;;;14.14;74.12;99274.97;336890;28;9198;-76
2023/05/11 00:02:25;;;;;;;1.92;1.83;;;;;;;14.17;74.00;99271.38;339473;28;5024;-76
2023/05/11 00:02:37;;;;;;;1.67;1.58;;;;;;;14.17;73.88;99268.75;336492;28;18005;-76
2023/05/11 00:02:49;;;;;;;1.40;1.17;;;;;;;14.16;73.83;99272.28;339694;28;5589;-76
2023/05/11 00:03:01;;;;;;;2.67;0.98;;;;;;;14.14;73.96;99274.13;337251;28;17901;-76
2023/05/11 00:03:13;;;;;;;2.60;0.80;;;;;;;14.15;73.80;99270.59;340074;28;4653;-76
2023/05/11 00:03:25;;;;;;;1.80;0.90;;;;;;;14.17;73.82;99279.22;337397;28;9497;-76
2023/05/11 00:03:37;;;;;;;0.98;0.88;;;;;;;14.18;73.72;99271.28;339132;28;5106;-76
2023/05/11 00:03:50;;;;;;;0.90;0.90;;;;;;;14.18;73.95;99270.44;339937;28;4548;-80
2023/05/11 00:04:02;;;;;;;1.20;1.10;;;;;;;14.20;73.70;99273.81;337272;28;18201;-81
2023/05/11 00:04:14;;;;;;;1.65;1.10;;;;;;;14.20;73.82;99273.81;340244;28;4514;-81
2023/05/11 00:04:26;;;;;;;1.80;0.98;;;;;;;14.19;73.62;99277.38;337357;28;18580;-79
2023/05/11 00:04:38;;;;;;;1.38;0.90;;;;;;;14.21;73.80;99280.72;340350;28;4470;-81
2023/05/11 00:04:50;;;;;;;2.00;0.90;;;;;;;14.20;73.66;99279.03;337255;28;8782;-82
2023/05/11 00:05:02;;;;;;;1.50;0.70;;;;;;;14.21;73.71;99275.50;339007;28;5198;-81
2023/05/11 00:05:15;;;;;;;0.93;0.70;;;;;;;14.22;73.72;99274.56;339144;28;4619;-83
2023/05/11 00:05:27;;;;;;;0.82;0.70;;;;;;;14.21;73.75;99275.50;338285;28;18974;-81
2023/05/11 00:05:39;;;;;;;1.10;0.70;;;;;;;14.23;73.87;99273.66;341961;28;4608;-81
2023/05/11 00:05:51;;;;;;;1.17;0.77;;;;;;;14.19;73.93;99277.38;339048;28;16278;-80
2023/05/11 00:06:03;;;;;;;0.85;0.73;;;;;;;14.20;74.21;99271.19;341538;28;5014;-81
2023/05/11 00:06:15;;;;;;;2.80;0.80;;;;;;;14.20;73.93;99279.03;342013;28;4550;-81
2023/05/11 00:06:27;;;;;;;3.05;0.73;;;;;;;14.20;74.02;99279.03;338388;28;19096;-81
2023/05/11 00:06:39;;;;;;;1.63;0.80;;;;;;;14.21;74.10;99272.06;341451;28;4574;-81
2023/05/11 00:06:51;;;;;;;1.88;0.90;;;;;;;14.20;73.86;99279.03;337934;28;18328;-80
2023/05/11 00:07:03;;;;;;;1.33;0.80;;;;;;;14.20;73.90;99276.41;341821;28;5139;-80
2023/05/11 00:07:15;;;;;;;1.48;0.77;;;;;;;14.21;73.85;99272.91;341258;28;4525;-81
2023/05/11 00:07:27;;;;;;;1.10;0.77;;;;;;;14.21;73.90;99270.28;338848;28;18068;-81
2023/05/11 00:07:39;;;;;;;1.27;0.90;;;;;;;14.22;73.80;99271.94;342011;28;5428;-81
2023/05/11 00:07:51;;;;;;;1.20;0.90;;;;;;;14.23;73.74;99272.81;338751;28;18284;-82
2023/05/11 00:08:03;;;;;;;1.10;0.80;;;;;;;14.22;73.82;99274.56;341690;28;4588;-81
2023/05/11 00:08:15;;;;;;;1.35;0.90;;;;;;;14.21;73.89;99272.91;340195;28;10675;-79
2023/05/11 00:08:28;;;;;;;1.35;1.10;;;;;;;14.22;73.63;99269.34;339604;28;18415;-80
2023/05/11 00:08:40;;;;;;;1.40;1.30;;;;;;;14.23;73.80;99278.88;341156;28;5151;-80
2023/05/11 00:08:52;;;;;;;1.52;1.42;;;;;;;14.24;73.73;99275.31;338726;28;18246;-81
2023/05/11 00:09:04;;;;;;;1.70;1.60;;;;;;;14.23;73.78;99273.66;341471;28;4589;-80
2023/05/11 00:09:16;;;;;;;3.03;1.83;;;;;;;14.24;73.87;99267.47;338674;28;16993;-81
2023/05/11 00:09:30;;;;;;;3.58;1.77;;;;;;;14.25;73.79;99268.34;340474;28;4724;-81
2023/05/11 00:09:42;;;;;;;2.35;1.40;;;;;;;14.26;73.68;99273.47;338059;28;19242;-80
2023/05/11 00:09:54;;;;;;;1.83;1.27;;;;;;;14.28;73.70;99281.25;341073;28;4676;-80
2023/05/11 00:10:07;;;;;;;1.40;1.20;;;;;;;14.27;73.41;99272.56;338862;28;18231;-79
2023/05/11 00:10:19;;;;;;;1.20;1.10;;;;;;;14.25;73.71;99271.81;341835;28;4730;-80
2023/05/11 00:10:31;;;;;;;1.15;1.08;;;;;;;14.25;73.68;99277.03;339208;28;18268;-82
2023/05/11 00:10:46;;;;;;;1.40;1.13;;;;;;;14.23;74.08;99276.28;341198;28;5057;-81
2023/05/11 00:11:01;;;;;;;1.40;1.02;;;;;;;14.24;73.99;99275.31;339252;28;19634;-80
2023/05/11 00:11:13;;;;;;;1.00;0.80;;;;;;;14.27;73.78;99277.78;338868;28;18088;-80
2023/05/11 00:11:25;;;;;;;1.10;0.80;;;;;;;14.28;73.89;99276.84;339385;28;9329;-79
2023/05/11 00:11:37;;;;;;;1.58;0.90;;;;;;;14.28;73.93;99271.63;341663;28;4550;-80
2023/05/11 00:11:51;;;;;;;1.75;0.90;;;;;;;14.30;73.95;99269.75;340292;28;4653;-81
2023/05/11 00:12:03;;;;;;;1.42;0.80;;;;;;;14.31;73.65;99273.25;338590;28;18519;-81
2023/05/11 00:12:15;;;;;;;0.95;0.80;;;;;;;14.30;73.87;99277.59;338960;28;10333;-79
2023/05/11 00:12:27;;;;;;;1.00;0.80;;;;;;;14.25;74.08;99277.03;339651;28;4976;-80
2023/05/11 00:12:39;;;;;;;1.30;0.90;;;;;;;14.22;73.96;99277.19;340099;28;4506;-81
2023/05/11 00:12:51;;;;;;;1.10;0.80;;;;;;;14.19;73.59;99272.13;337394;28;17957;-80
2023/05/11 00:13:03;;;;;;;0.80;0.70;;;;;;;14.20;73.65;99279.03;340357;28;4532;-81
2023/05/11 00:13:16;;;;;;;1.73;0.75;;;;;;;14.17;73.49;99268.75;338231;28;5012;-79
2023/05/11 00:13:28;;;;;;;2.10;0.70;;;;;;;14.14;73.76;99274.13;340249;28;4480;-80
2023/05/11 00:13:40;;;;;;;1.30;0.70;;;;;;;14.10;74.03;99280.44;340302;28;4495;-80
2023/05/11 00:13:52;;;;;;;1.60;0.77;;;;;;;14.12;73.89;99282.06;336879;28;18678;-80
2023/05/11 00:14:04;;;;;;;3.03;0.75;;;;;;;14.15;73.78;99283.69;340440;28;4548;-80
2023/05/11 00:14:16;;;;;;;3.03;0.77;;;;;;;14.19;73.72;99272.13;338729;28;18348;-79
2023/05/11 00:14:28;;;;;;;3.53;0.95;;;;;;;14.21;73.64;99275.50;341451;28;5218;-80
2023/05/11 00:14:40;;;;;;;1.88;1.00;;;;;;;14.21;73.40;99270.28;341593;28;5166;-80
2023/05/11 00:14:52;;;;;;;1.50;1.05;;;;;;;14.22;73.33;99269.34;338130;28;18040;-80
2023/05/11 00:15:05;;;;;;;1.92;1.30;;;;;;;14.21;73.59;99280.72;341395;28;4651;-80
2023/05/11 00:15:17;;;;;;;2.00;1.33;;;;;;;14.22;73.35;99277.19;338968;28;18265;-82
2023/05/11 00:15:29;;;;;;;2.08;1.10;;;;;;;14.20;73.37;99279.03;341245;28;5407;-82
2023/05/11 00:15:41;;;;;;;1.13;0.90;;;;;;;14.22;73.25;99277.19;339259;28;4757;-82
2023/05/11 00:15:53;;;;;;;1.05;0.80;;;;;;;14.19;73.20;99274.75;341413;28;4809;-82
2023/05/11 00:16:05;;;;;;;0.75;0.70;;;;;;;14.18;73.14;99270.44;341716;28;5232;-81
2023/05/11 00:16:17;;;;;;;0.77;0.70;;;;;;;14.14;73.23;99274.13;338842;28;17972;-82
2023/05/11 00:16:29;;;;;;;0.88;0.70;;;;;;;14.16;73.30;99272.28;341200;28;4545;-81
2023/05/11 00:16:41;;;;;;;1.13;0.70;;;;;;;14.09;73.34;99281.41;337606;28;18365;-84
2023/05/11 00:16:53;;;;;;;1.90;0.60;;;;;;;14.05;73.51;99280.69;341443;28;4518;-80
2023/05/11 00:17:06;;;;;;;1.80;0.68;;;;;;;14.05;73.69;99279.88;340551;28;9297;-80
2023/05/11 00:17:19;;;;;;;1.58;0.77;;;;;;;14.04;73.74;99275.56;337659;28;19007;-80
2023/05/11 00:17:31;;;;;;;0.75;0.70;;;;;;;14.03;73.75;99279.09;338586;28;18092;-81
2023/05/11 00:17:44;;;;;;;0.70;0.70;;;;;;;14.05;73.77;99279.88;341461;28;4671;-83
2023/05/11 00:17:56;;;;;;;2.50;0.80;;;;;;;13.99;73.90;99279.25;338104;28;18710;-80
2023/05/11 00:18:08;;;;;;;2.50;0.80;;;;;;;13.97;73.80;99268.03;341616;28;5449;-80
2023/05/11 00:18:20;;;;;;;1.45;0.80;;;;;;;13.93;74.16;99276.97;341911;28;4695;-80
2023/05/11 00:18:32;;;;;;;1.67;0.90;;;;;;;13.92;74.40;99275.28;339006;28;19061;-80
2023/05/11 00:18:44;;;;;;;1.52;0.80;;;;;;;13.92;74.21;99275.28;341934;28;4659;-80
2023/05/11 00:18:56;;;;;;;2.40;0.90;;;;;;;13.93;74.26;99271.75;338376;28;18442;-79
2023/05/11 00:19:08;;;;;;;1.58;0.88;;;;;;;13.92;73.89;99275.28;340853;28;4478;-80
2023/05/11 00:19:20;;;;;;;1.55;0.75;;;;;;;13.91;74.34;99276.19;341673;28;5288;-80
2023/05/11 00:19:32;;;;;;;1.45;0.80;;;;;;;13.85;74.64;99279.13;338557;28;18492;-80
2023/05/11 00:19:44;;;;;;;1.27;0.80;;;;;;;13.87;74.48;99277.28;340388;28;4797;-80
2023/05/11 00:19:56;;;;;;;0.98;0.80;;;;;;;13.88;74.44;99278.13;337450;28;17613;-80
2023/05/11 00:20:08;;;;;;;0.88;0.85;;;;;;;13.83;74.75;99275.75;340237;28;5311;-80
2023/05/11 00:20:22;;;;;;;1.20;1.08;;;;;;;13.84;74.74;99281.81;338548;28;11583;-80
2023/05/11 00:20:34;;;;;;;1.48;1.20;;;;;;;13.84;74.68;99277.44;338969;28;17901;-81
2023/05/11 00:20:46;;;;;;;1.33;1.00;;;;;;;13.85;74.71;99268.69;338344;28;18906;-79
2023/05/11 00:20:58;;;;;;;1.30;0.95;;;;;;;13.79;75.23;99279.44;341000;28;4599;-80
2023/05/11 00:21:10;;;;;;;1.35;0.93;;;;;;;13.75;75.17;99278.75;341665;28;4492;-80
2023/05/11 00:21:22;;;;;;;1.17;1.00;;;;;;;13.69;75.30;99279.06;339146;28;19099;-80
2023/05/11 00:21:34;;;;;;;1.20;0.90;;;;;;;13.72;75.56;99272.84;341532;28;4668;-80
2023/05/11 00:21:46;;;;;;;1.20;0.90;;;;;;;13.74;75.41;99271.00;338647;28;16611;-80
2023/05/11 00:21:58;;;;;;;2.10;0.90;;;;;;;13.75;75.41;99280.53;341824;28;4706;-80
2023/05/11 00:22:10;;;;;;;2.47;0.93;;;;;;;13.76;75.32;99274.38;341671;28;4639;-80
2023/05/11 00:22:22;;;;;;;2.30;1.02;;;;;;;13.78;75.35;99278.63;339227;28;18860;-80
2023/05/11 00:22:34;;;;;;;1.42;1.08;;;;;;;13.79;75.25;99274.22;341902;28;4502;-80
2023/05/11 00:22:46;;;;;;;1.10;1.00;;;;;;;13.79;75.30;99272.44;339021;28;18176;-80
2023/05/11 00:22:58;;;;;;;1.90;1.10;;;;;;;13.81;75.24;99276.78;341997;28;4457;-80
2023/05/11 00:23:10;;;;;;;1.90;1.10;;;;;;;13.80;75.28;99275.91;341583;28;4668;-80
2023/05/11 00:23:22;;;;;;;1.77;1.00;;;;;;;13.74;75.77;99279.69;338547;28;19474;-80
2023/05/11 00:23:34;;;;;;;1.88;1.00;;;;;;;13.70;75.72;99282.53;341240;28;5423;-80
2023/05/11 00:23:46;;;;;;;1.85;1.00;;;;;;;13.69;75.58;99278.25;339077;28;17869;-79
2023/05/11 00:24:01;;;;;;;1.70;1.00;;;;;;;13.70;75.62;99272.94;341650;28;5466;-80
2023/05/11 00:24:13;;;;;;;1.23;1.00;;;;;;;13.72;75.68;99280.69;337034;28;17492;-80
2023/05/11 00:24:25;;;;;;;1.27;1.02;;;;;;;13.72;75.57;99276.31;340273;28;4540;-80
2023/05/11 00:24:38;;;;;;;1.60;1.20;;;;;;;13.68;75.95;99282.63;337047;28;17707;-80
2023/05/11 00:24:50;;;;;;;1.70;1.25;;;;;;;13.65;76.05;99281.94;340376;28;5481;-80
2023/05/11 00:25:02;;;;;;;1.58;1.10;;;;;;;13.61;75.95;99278.63;337409;28;18637;-80
2023/05/11 00:25:14;;;;;;;1.45;1.10;;;;;;;13.62;76.02;99282.06;340449;28;4527;-80
2023/05/11 00:25:26;;;;;;;1.58;1.20;;;;;;;13.61;76.28;99277.78;338923;28;16277;-79
2023/05/11 00:25:38;;;;;;;1.65;1.20;;;;;;;13.63;76.21;99281.16;341523;28;5155;-82
2023/05/11 00:25:50;;;;;;;3.35;1.10;;;;;;;13.64;76.28;99280.22;341586;28;5612;-80
2023/05/11 00:26:02;;;;;;;3.35;1.10;;;;;;;13.66;76.00;99273.16;338848;28;18945;-80
2023/05/11 00:26:14;;;;;;;2.42;1.00;;;;;;;13.68;75.97;99277.41;342009;28;5363;-81
2023/05/11 00:26:26;;;;;;;1.77;1.08;;;;;;;13.69;75.94;99278.25;338694;28;18362;-80
2023/05/11 00:26:38;;;;;;;1.85;1.20;;;;;;;13.69;75.95;99275.63;341405;28;4670;-80
2023/05/11 00:26:51;;;;;;;1.63;1.15;;;;;;;13.64;76.36;99285.44;339733;28;5357;-80
2023/05/11 00:27:03;;;;;;;1.05;0.95;;;;;;;13.62;76.35;99279.47;338528;28;18300;-80
2023/05/11 00:27:15;;;;;;;1.08;0.90;;;;;;;13.59;76.40;99278.69;340609;28;5033;-80
2023/05/11 00:27:26;;;;;;;1.10;0.90;;;;;;;13.63;76.27;99283.78;338394;28;10718;-79
2023/05/11 00:27:39;;;;;;;1.05;0.93;;;;;;;13.61;76.31;99286.47;341238;28;4484;-80
2023/05/11 00:27:51;;;;;;;1.10;0.98;;;;;;;13.57;76.28;99275.31;338783;28;19366;-81
2023/05/11 00:28:04;;;;;;;1.50;1.00;;;;;;;13.55;76.59;99282.38;341674;28;4684;-81
2023/05/11 00:28:16;;;;;;;1.70;1.00;;;;;;;13.54;76.56;99285.94;339742;28;4545;-80
2023/05/11 00:28:28;;;;;;;1.25;0.82;;;;;;;13.57;76.34;99287.53;337718;28;17563;-81
2023/05/11 00:28:40;;;;;;;1.20;0.80;;;;;;;13.61;76.32;99275.19;338706;28;4513;-81
2023/05/11 00:28:52;;;;;;;1.30;0.85;;;;;;;13.63;76.27;99275.94;336362;28;18177;-81
2023/05/11 00:29:03;;;;;;;1.30;0.98;;;;;;;13.57;76.36;99280.53;340495;28;5125;-81
2023/05/11 00:29:16;;;;;;;1.25;1.05;;;;;;;13.58;76.44;99277.03;340333;28;4493;-81
2023/05/11 00:29:27;;;;;;;2.03;1.80;;;;;;;13.62;76.36;99282.06;337151;28;17892;-81
2023/05/11 00:29:39;;;;;;;2.63;2.20;;;;;;;13.63;76.24;99278.56;340166;28;4590;-80
2023/05/11 00:29:51;;;;;;;1.90;1.58;;;;;;;13.64;76.27;99280.22;337388;28;19087;-83
2023/05/11 00:30:04;;;;;;;1.48;0.98;;;;;;;13.67;76.00;99277.47;340123;28;4485;-83
2023/05/11 00:30:16;;;;;;;1.02;0.82;;;;;;;13.62;76.33;99279.47;335952;28;9783;-80
2023/05/11 00:30:28;;;;;;;0.80;0.73;;;;;;;13.52;76.41;99282.56;338939;28;5070;-80
2023/05/11 00:30:40;;;;;;;0.90;0.70;;;;;;;13.56;76.47;99273.66;340535;28;4693;-80
2023/05/11 00:30:56;;;;;;;0.88;0.70;;;;;;;13.59;76.38;99273.47;338719;28;19421;-80
2023/05/11 00:31:08;;;;;;;1.67;0.73;;;;;;;13.60;76.25;99279.53;337487;28;18467;-80
2023/05/11 00:31:20;;;;;;;2.17;0.80;;;;;;;13.60;76.27;99284.75;340380;28;4505;-80
2023/05/11 00:31:32;;;;;;;1.40;0.80;;;;;;;13.58;76.41;99276.16;337678;28;18519;-80
2023/05/11 00:31:46;;;;;;;1.05;0.80;;;;;;;13.59;76.30;99270.88;340430;28;4785;-81
2023/05/11 00:31:59;;;;;;;0.98;0.82;;;;;;;13.64;76.12;99275.00;336867;28;18444;-80
2023/05/11 00:32:10;;;;;;;1.08;0.80;;;;;;;13.66;76.22;99265.31;340084;28;4586;-80
2023/05/11 00:32:22;;;;;;;1.60;1.50;;;;;;;13.67;76.03;99274.88;338156;28;18460;-80
2023/05/11 00:32:34;;;;;;;1.85;1.75;;;;;;;13.68;76.04;99271.31;341262;28;5458;-80
2023/05/11 00:32:47;;;;;;;1.80;1.42;;;;;;;13.70;76.00;99269.47;338564;28;18215;-79
2023/05/11 00:32:59;;;;;;;1.90;0.93;;;;;;;13.72;75.79;99268.50;341263;28;5303;-82
2023/05/11 00:33:11;;;;;;;1.77;0.88;;;;;;;13.72;75.80;99268.50;338796;28;18463;-82
2023/05/11 00:33:23;;;;;;;1.35;0.98;;;;;;;13.74;75.81;99271.00;342033;28;4598;-82
2023/05/11 00:33:35;;;;;;;2.00;1.40;;;;;;;13.74;75.82;99276.22;341903;28;4666;-84
2023/05/11 00:33:47;;;;;;;2.33;1.95;;;;;;;13.74;75.51;99271.00;339082;28;18632;-83
2023/05/11 00:33:59;;;;;;;2.40;2.20;;;;;;;13.74;75.72;99273.59;342311;28;4472;-81
2023/05/11 00:34:11;;;;;;;2.20;1.67;;;;;;;13.75;75.81;99270.09;338995;28;16296;-80
2023/05/11 00:34:23;;;;;;;2.38;1.10;;;;;;;13.75;75.57;99268.31;341960;28;5003;-80
2023/05/11 00:34:35;;;;;;;2.50;0.93;;;;;;;13.76;75.50;99269.16;341087;28;4552;-80
2023/05/11 00:34:47;;;;;;;2.10;1.10;;;;;;;13.76;75.65;99267.41;339318;28;18383;-80
2023/05/11 00:34:59;;;;;;;1.27;1.02;;;;;;;13.76;75.58;99269.16;341834;28;4544;-80
2023/05/11 00:35:11;;;;;;;1.45;1.02;;;;;;;13.75;75.63;99267.47;339205;28;10278;-80
2023/05/11 00:35:23;;;;;;;1.65;0.90;;;;;;;13.69;75.94;99270.41;341735;28;4510;-80
2023/05/11 00:35:35;;;;;;;2.10;0.90;;;;;;;13.71;75.96;99265.94;341953;28;5641;-80
2023/05/11 00:35:48;;;;;;;2.08;0.90;;;;;;;13.70;75.77;99269.47;338772;28;18283;-83
2023/05/11 00:36:00;;;;;;;0.83;0.80;;;;;;;13.64;76.20;99272.41;342074;28;5031;-83
2023/05/11 00:36:12;;;;;;;1.43;0.77;;;;;;;13.65;76.14;99271.50;338364;28;18331;-76
2023/05/11 00:36:24;;;;;;;4.13;0.93;;;;;;;13.66;76.01;99268.81;341531;28;4596;-76
2023/05/11 00:36:38;;;;;;;3.75;1.10;;;;;;;13.67;76.08;99269.63;341341;28;4481;-76
2023/05/11 00:36:52;;;;;;;1.10;0.93;;;;;;;13.64;76.31;99269.78;338285;28;17851;-76
2023/05/11 00:37:04;;;;;;;0.85;0.80;;;;;;;13.66;76.11;99273.16;340759;28;4518;-76
2023/05/11 00:37:16;;;;;;;0.70;0.70;;;;;;;13.68;76.13;99266.97;338430;28;5166;-76
2023/05/11 00:37:28;;;;;;;1.25;0.70;;;;;;;13.66;76.00;99263.59;341536;28;4457;-76
2023/05/11 00:37:40;;;;;;;1.98;0.80;;;;;;;13.66;75.83;99265.31;341360;28;4692;-76
2023/05/11 00:37:52;;;;;;;1.67;0.85;;;;;;;13.67;76.27;99274.88;338548;28;18386;-76
2023/05/11 00:38:04;;;;;;;1.35;0.85;;;;;;;13.67;76.29;99264.41;341776;28;5184;-76
2023/05/11 00:38:16;;;;;;;1.10;0.85;;;;;;;13.55;76.64;99271.94;339013;28;5462;-76
2023/05/11 00:38:28;;;;;;;0.95;0.70;;;;;;;13.56;76.83;99271.03;341468;28;5149;-76
2023/05/11 00:38:40;;;;;;;0.95;0.80;;;;;;;13.58;76.58;99266.59;340228;28;5151;-76
2023/05/11 00:38:52;;;;;;;1.13;1.02;;;;;;;13.61;76.47;99269.97;337762;28;18158;-76
2023/05/11 00:39:04;;;;;;;1.90;1.80;;;;;;;13.65;76.39;99271.50;341243;28;4746;-76
2023/05/11 00:39:17;;;;;;;2.33;2.15;;;;;;;13.67;76.56;99262.63;338621;28;5740;-76
2023/05/11 00:39:37;;;;;;;2.67;2.40;;;;;;;13.69;76.46;99263.41;339919;28;4533;-76
2023/05/11 00:39:49;;;;;;;2.38;2.08;;;;;;;13.68;76.35;99266.09;337098;28;17882;-76
2023/05/11 00:40:04;;;;;;;1.75;1.65;;;;;;;13.69;76.41;99263.41;337301;28;18386;-76
2023/05/11 00:40:16;;;;;;;1.70;1.60;;;;;;;13.74;76.24;99268.38;337946;28;5329;-76
2023/05/11 00:40:31;;;;;;;2.17;1.60;;;;;;;13.75;75.90;99267.47;340319;28;5061;-76
2023/05/11 00:40:43;;;;;;;3.72;1.58;;;;;;;13.75;76.21;99263.09;337369;28;18769;-76
2023/05/11 00:40:55;;;;;;;4.30;1.55;;;;;;;13.72;76.16;99262.41;341679;28;4532;-76
2023/05/11 00:41:07;;;;;;;3.20;1.50;;;;;;;13.71;76.38;99268.56;338327;28;18467;-76
2023/05/11 00:41:20;;;;;;;1.55;1.40;;;;;;;13.72;76.31;99265.00;341557;28;5497;-76
2023/05/11 00:41:32;;;;;;;1.50;1.40;;;;;;;13.69;76.14;99258.19;338776;28;18086;-76
2023/05/11 00:41:44;;;;;;;1.63;1.40;;;;;;;13.69;76.24;99262.56;341466;28;4512;-76
2023/05/11 00:41:56;;;;;;;1.60;1.20;;;;;;;13.72;76.12;99267.63;337999;28;9181;-76
2023/05/11 00:42:09;;;;;;;2.85;1.33;;;;;;;13.72;76.10;99265.88;341385;28;4475;-76
2023/05/11 00:42:21;;;;;;;3.75;2.10;;;;;;;13.77;76.07;99265.63;339161;28;9615;-76
2023/05/11 00:42:33;;;;;;;3.03;2.47;;;;;;;13.77;75.98;99268.25;341246;28;4497;-76
2023/05/11 00:42:45;;;;;;;2.50;2.30;;;;;;;13.78;75.98;99262.94;341471;28;4542;-76
2023/05/11 00:42:58;;;;;;;2.17;1.98;;;;;;;13.76;75.84;99267.41;338629;28;18165;-76
2023/05/11 00:43:10;;;;;;;2.03;1.58;;;;;;;13.72;76.11;99267.63;341261;28;4547;-76
2023/05/11 00:43:22;;;;;;;1.75;1.15;;;;;;;13.74;76.06;99268.38;338927;28;18022;-76
2023/05/11 00:43:34;;;;;;;1.80;1.33;;;;;;;13.73;75.99;99264.09;341784;28;5304;-76
2023/05/11 00:43:46;;;;;;;1.80;1.63;;;;;;;13.74;76.14;99261.41;340043;28;4672;-76
2023/05/11 00:43:58;;;;;;;2.08;1.80;;;;;;;13.75;76.06;99268.31;337451;28;18069;-76
2023/05/11 00:44:10;;;;;;;1.92;1.70;;;;;;;13.77;75.95;99265.63;340097;28;4573;-76
2023/05/11 00:44:21;;;;;;;2.33;2.13;;;;;;;13.78;75.98;99262.94;336783;28;18088;-76
2023/05/11 00:44:33;;;;;;;2.22;2.03;;;;;;;13.79;76.01;99261.16;340030;28;4543;-76
2023/05/11 00:44:46;;;;;;;2.42;1.90;;;;;;;13.82;75.94;99268.81;339909;28;4547;-76
2023/05/11 00:44:58;;;;;;;3.58;1.80;;;;;;;13.83;75.91;99264.47;338399;28;17992;-75
2023/05/11 00:45:10;;;;;;;3.22;1.90;;;;;;;13.86;76.10;99267.75;341245;28;4641;-75
2023/05/11 00:45:23;;;;;;;3.17;1.52;;;;;;;13.87;75.94;99272.06;338492;28;18006;-75
2023/05/11 00:45:35;;;;;;;1.95;0.98;;;;;;;13.88;75.75;99268.50;341370;28;4752;-75
2023/05/11 00:45:48;;;;;;;2.05;0.80;;;;;;;13.89;75.66;99264.97;338596;28;18179;-75
2023/05/11 00:46:01;;;;;;;2.20;0.90;;;;;;;13.89;75.65;99264.97;341579;28;4974;-75
2023/05/11 00:46:13;;;;;;;2.00;0.93;;;;;;;13.89;75.76;99262.38;338443;28;19092;-75
2023/05/11 00:46:27;;;;;;;2.28;1.38;;;;;;;13.90;75.60;99269.28;341425;28;5460;-75
2023/05/11 00:46:39;;;;;;;1.83;1.60;;;;;;;13.92;75.53;99269.19;338515;28;17900;-75
2023/05/11 00:46:51;;;;;;;1.38;1.27;;;;;;;13.92;75.37;99264.84;341320;28;4695;-75
2023/05/11 00:47:03;;;;;;;1.10;1.00;;;;;;;13.93;75.37;99260.44;338277;28;18206;-75
2023/05/11 00:47:15;;;;;;;1.45;1.35;;;;;;;13.93;75.29;99269.13;341318;28;5405;-75
2023/05/11 00:47:27;;;;;;;2.33;1.83;;;;;;;13.95;75.18;99264.66;337910;28;18219;-75
2023/05/11 00:47:40;;;;;;;3.55;2.10;;;;;;;13.95;75.20;99269.06;341278;28;5019;-75
2023/05/11 00:47:52;;;;;;;3.53;1.65;;;;;;;13.96;75.20;99271.59;338595;28;18833;-75
2023/05/11 00:48:04;;;;;;;2.10;1.23;;;;;;;13.93;75.09;99263.91;341600;28;5239;-75
2023/05/11 00:48:16;;;;;;;1.48;1.25;;;;;;;13.94;75.05;99268.22;338677;28;9423;-75
2023/05/11 00:48:28;;;;;;;1.50;1.40;;;;;;;13.97;75.17;99268.03;341532;28;5457;-75
2023/05/11 00:48:41;;;;;;;1.70;1.42;;;;;;;13.95;75.25;99272.50;341608;28;5211;-75
2023/05/11 00:48:53;;;;;;;1.75;1.30;;;;;;;13.94;75.40;99268.22;338979;28;18251;-75
2023/05/11 00:49:05;;;;;;;2.03;1.08;;;;;;;13.95;75.46;99267.28;341783;28;4548;-75
2023/05/11 00:49:20;;;;;;;1.30;0.77;;;;;;;13.96;75.29;99268.97;338997;28;18299;-75
2023/05/11 00:49:32;;;;;;;0.65;0.65;;;;;;;13.97;75.40;99270.66;338718;28;18162;-75
2023/05/11 00:49:48;;;;;;;0.80;0.80;;;;;;;13.97;75.20;99265.44;339086;28;5599;-75
2023/05/11 00:50:00;;;;;;;2.03;1.02;;;;;;;13.98;75.34;99263.66;341074;28;4774;-75
2023/05/11 00:50:12;;;;;;;2.80;1.10;;;;;;;13.98;75.41;99269.75;338715;28;18182;-75
2023/05/11 00:50:25;;;;;;;2.60;1.10;;;;;;;14.01;75.43;99268.72;340860;28;5451;-75
2023/05/11 00:50:37;;;;;;;1.30;1.00;;;;;;;14.02;75.77;99267.78;338879;28;5013;-75
2023/05/11 00:50:49;;;;;;;1.45;0.90;;;;;;;14.05;75.66;99269.41;341586;28;5451;-75
2023/05/11 00:51:02;;;;;;;1.60;1.00;;;;;;;14.04;75.58;99267.72;340410;28;9964;-75
2023/05/11 00:51:14;;;;;;;1.33;1.10;;;;;;;14.04;75.57;99268.53;339761;28;17493;-75
2023/05/11 00:51:26;;;;;;;1.90;1.02;;;;;;;14.02;75.59;99266.94;338957;28;10817;-75
2023/05/11 00:51:38;;;;;;;1.90;1.00;;;;;;;14.04;75.61;99267.72;341361;28;4542;-75
2023/05/11 00:51:50;;;;;;;2.47;1.10;;;;;;;14.07;75.45;99267.56;340863;28;6388;-75
2023/05/11 00:52:02;;;;;;;2.50;1.10;;;;;;;14.07;75.43;99262.34;338527;28;18512;-75
2023/05/11 00:52:15;;;;;;;2.40;1.00;;;;;;;14.10;75.30;99267.38;340989;28;4508;-75
2023/05/11 00:52:27;;;;;;;1.23;0.90;;;;;;;14.11;75.37;99259.47;338769;28;5401;-75
2023/05/11 00:52:41;;;;;;;1.63;0.90;;;;;;;14.11;75.23;99263.84;341780;28;4653;-75
2023/05/11 00:52:54;;;;;;;1.80;0.90;;;;;;;14.08;75.21;99264.84;338823;28;18136;-75
2023/05/11 00:53:06;;;;;;;1.40;0.90;;;;;;;14.05;75.23;99269.41;338771;28;10330;-75
2023/05/11 00:53:18;;;;;;;1.40;0.80;;;;;;;14.05;75.12;99269.41;341524;28;4627;-75
2023/05/11 00:53:30;;;;;;;1.38;0.80;;;;;;;14.03;75.36;99272.09;341707;28;4706;-75
2023/05/11 00:53:42;;;;;;;0.85;0.77;;;;;;;14.05;75.30;99270.25;338569;28;18062;-75
2023/05/11 00:53:55;;;;;;;1.02;0.80;;;;;;;14.06;75.34;99261.47;341711;28;5228;-75
2023/05/11 00:54:13;;;;;;;1.50;1.00;;;;;;;14.07;75.42;99262.34;338780;28;10145;-75
2023/05/11 00:54:26;;;;;;;1.55;1.00;;;;;;;14.07;75.35;99267.56;338351;28;17771;-75
2023/05/11 00:54:39;;;;;;;1.20;0.80;;;;;;;14.02;75.15;99264.34;338405;28;17895;-75
2023/05/11 00:54:51;;;;;;;1.10;0.80;;;;;;;14.02;75.07;99256.50;341403;28;4991;-75
2023/05/11 00:55:03;;;;;;;1.02;0.80;;;;;;;14.05;75.12;99258.97;338011;28;19129;-75
2023/05/11 00:55:18;;;;;;;1.48;0.80;;;;;;;14.04;75.21;99262.47;341439;28;4664;-75
2023/05/11 00:55:30;;;;;;;1.35;0.90;;;;;;;14.04;75.15;99260.72;338688;28;17783;-75
2023/05/11 00:55:43;;;;;;;1.20;0.90;;;;;;;14.07;75.01;99263.16;338592;28;18060;-75
2023/05/11 00:55:55;;;;;;;0.90;0.77;;;;;;;14.09;74.99;99258.72;341598;28;5323;-75
2023/05/11 00:56:07;;;;;;;1.05;0.73;;;;;;;14.05;75.06;99261.56;339052;28;16260;-75
2023/05/11 00:56:20;;;;;;;1.08;0.80;;;;;;;14.03;75.13;99259.03;341325;28;5075;-75
2023/05/11 00:56:32;;;;;;;1.08;0.88;;;;;;;14.03;75.30;99266.03;337781;28;16774;-75
2023/05/11 00:56:44;;;;;;;0.88;0.80;;;;;;;13.96;75.58;99261.13;340918;28;5378;-75
2023/05/11 00:56:56;;;;;;;1.13;0.80;;;;;;;13.99;75.56;99262.72;341357;28;5466;-75
2023/05/11 00:57:08;;;;;;;2.35;0.90;;;;;;;13.99;75.38;99260.13;337927;28;18162;-75
2023/05/11 00:57:20;;;;;;;2.97;0.82;;;;;;;13.93;75.45;99261.28;341354;28;4658;-75
2023/05/11 00:57:34;;;;;;;3.67;0.77;;;;;;;13.93;75.43;99266.50;338769;28;18004;-75
2023/05/11 00:57:47;;;;;;;1.63;0.70;;;;;;;13.93;75.49;99260.44;338942;28;9871;-75
2023/05/11 00:57:59;;;;;;;0.93;0.80;;;;;;;13.90;75.49;99261.44;341447;28;5117;-75
2023/05/11 00:58:11;;;;;;;0.90;0.80;;;;;;;13.88;75.50;99260.66;341517;28;5414;-75
2023/05/11 00:58:23;;;;;;;1.08;0.90;;;;;;;13.91;75.43;99260.53;338480;28;19368;-75
2023/05/11 00:58:38;;;;;;;1.70;0.90;;;;;;;13.89;75.61;99259.75;341679;28;4675;-75
2023/05/11 00:58:51;;;;;;;3.90;0.85;;;;;;;13.91;75.55;99260.53;338425;28;17937;-75
2023/05/11 00:59:06;;;;;;;3.20;0.80;;;;;;;13.94;75.54;99263.00;338497;28;18019;-75
2023/05/11 00:59:18;;;;;;;1.20;0.80;;;;;;;13.96;75.47;99261.13;338576;28;18725;-75
2023/05/11 00:59:30;;;;;;;1.33;0.80;;;;;;;13.97;75.38;99262.81;341685;28;5565;-75